Front Ariake — C6RX9 — position and weather

sailwx.info

Track history (hours):
 
Tides and Currents Weather Stations Pressure Air Temp Water Temp Dewpoint Dewpoint Depression Visibility Wind Speed Wind Dir Waves Ship Positions

Front Ariake

Last reported at 2016-Sep-28 12:29 UTC. Time now 2016-Sep-28 22:15 UTC.
Position N 52°21' E 002°05'.

Length 333 m; draft 11 m.

Type: Tanker. MMSI: 311226956.

Date/timePositionNaut miles runAvg speedWind from/ knotsBaromVisibWave heightAir tempDewpointWater temp
2016-Sep-28 12:29N 52°21' E 002°05'0 0.1
2016-Sep-28 08:32N 52°21' E 002°05'0 0.1
2016-Sep-28 03:32N 52°21' E 002°05'0 0.1
2016-Sep-28 02:32N 52°21' E 002°05'0 0.0
2016-Sep-28 01:32N 52°21' E 002°05'0 0.0
2016-Sep-27 23:26N 52°21' E 002°05'  
2016-Sep-25 07:17N 52°21' E 002°05'0 0.2
2016-Sep-25 04:32N 52°21' E 002°05'0 0.1
2016-Sep-25 00:32N 52°21' E 002°05'0 0.0
2016-Sep-24 22:11N 52°21' E 002°05'0 0.0
2016-Sep-24 21:20N 52°21' E 002°05'0 0.0
2016-Sep-24 19:32N 52°21' E 002°05'0 0.0
2016-Sep-24 18:32N 52°21' E 002°05'0 0.2
2016-Sep-24 17:32N 52°21' E 002°05'16 4.8
2016-Sep-24 14:13N 52°21' E 002°31'17 9.3
2016-Sep-24 12:27N 52°37' E 002°37'21 6.3
2016-Sep-24 09:13N 52°18' E 002°25'13 0.4
2016-Sep-23 00:12N 52°22' E 002°05'  
Track history (hours):
 
Tides and Currents Weather Stations Pressure Air Temp Water Temp Dewpoint Dewpoint Depression Visibility Wind Speed Wind Dir Waves Ship Positions

Front Ariake

Last reported at 2016-Sep-28 12:29 UTC. Time now 2016-Sep-28 22:15 UTC.
Position N 52°21' E 002°05'.

Length 333 m; draft 11 m.

Type: Tanker. MMSI: 311226956.

Date/timePositionNaut miles runAvg speedWind from/ knotsBaromVisibWave heightAir tempDewpointWater temp
2016-Sep-28 12:29N 52°21' E 002°05'0 0.1
2016-Sep-28 08:32N 52°21' E 002°05'0 0.1
2016-Sep-28 03:32N 52°21' E 002°05'0 0.1
2016-Sep-28 02:32N 52°21' E 002°05'0 0.0
2016-Sep-28 01:32N 52°21' E 002°05'0 0.0
2016-Sep-27 23:26N 52°21' E 002°05'  
2016-Sep-25 07:17N 52°21' E 002°05'0 0.2
2016-Sep-25 04:32N 52°21' E 002°05'0 0.1
2016-Sep-25 00:32N 52°21' E 002°05'0 0.0
2016-Sep-24 22:11N 52°21' E 002°05'0 0.0
2016-Sep-24 21:20N 52°21' E 002°05'0 0.0
2016-Sep-24 19:32N 52°21' E 002°05'0 0.0
2016-Sep-24 18:32N 52°21' E 002°05'0 0.2
2016-Sep-24 17:32N 52°21' E 002°05'16 4.8
2016-Sep-24 14:13N 52°21' E 002°31'17 9.3
2016-Sep-24 12:27N 52°37' E 002°37'21 6.3
2016-Sep-24 09:13N 52°18' E 002°25'13 0.4
2016-Sep-23 00:12N 52°22' E 002°05'  

Dump ship's entire track history